sensor_id;sensor_type;location;lat;lon;timestamp;P1;durP1;ratioP1;P2;durP2;ratioP2
38859;SDS011;24609;48.316;16.174;2022-12-31T00:01:50;24.65;;;11.77;;
38859;SDS011;24609;48.316;16.174;2022-12-31T00:04:16;31.85;;;14.65;;
38859;SDS011;24609;48.316;16.174;2022-12-31T00:06:41;24.52;;;12.73;;
38859;SDS011;24609;48.316;16.174;2022-12-31T00:09:08;32.03;;;12.73;;
38859;SDS011;24609;48.316;16.174;2022-12-31T00:11:35;26.38;;;12.90;;
38859;SDS011;24609;48.316;16.174;2022-12-31T00:14:02;26.08;;;14.70;;
38859;SDS011;24609;48.316;16.174;2022-12-31T00:16:32;22.48;;;11.95;;
38859;SDS011;24609;48.316;16.174;2022-12-31T00:19:00;29.27;;;13.30;;
38859;SDS011;24609;48.316;16.174;2022-12-31T00:21:28;29.73;;;13.57;;
38859;SDS011;24609;48.316;16.174;2022-12-31T00:23:55;23.48;;;11.15;;
38859;SDS011;24609;48.316;16.174;2022-12-31T00:26:22;33.97;;;14.15;;
38859;SDS011;24609;48.316;16.174;2022-12-31T00:28:50;27.35;;;13.25;;
38859;SDS011;24609;48.316;16.174;2022-12-31T00:31:18;26.77;;;13.18;;
38859;SDS011;24609;48.316;16.174;2022-12-31T00:33:48;16.35;;;9.02;;
38859;SDS011;24609;48.316;16.174;2022-12-31T00:36:15;30.13;;;10.40;;
38859;SDS011;24609;48.316;16.174;2022-12-31T00:38:47;20.00;;;11.48;;
38859;SDS011;24609;48.316;16.174;2022-12-31T00:41:14;22.85;;;10.68;;
38859;SDS011;24609;48.316;16.174;2022-12-31T00:43:40;25.58;;;11.85;;
38859;SDS011;24609;48.316;16.174;2022-12-31T00:46:07;26.00;;;11.55;;
38859;SDS011;24609;48.316;16.174;2022-12-31T00:48:33;23.70;;;11.52;;
38859;SDS011;24609;48.316;16.174;2022-12-31T00:51:00;27.70;;;13.20;;
38859;SDS011;24609;48.316;16.174;2022-12-31T00:53:27;19.55;;;9.38;;
38859;SDS011;24609;48.316;16.174;2022-12-31T00:56:04;20.45;;;10.90;;
38859;SDS011;24609;48.316;16.174;2022-12-31T00:58:32;23.23;;;10.98;;
38859;SDS011;24609;48.316;16.174;2022-12-31T01:03:40;25.85;;;12.50;;
38859;SDS011;24609;48.316;16.174;2022-12-31T01:06:06;23.60;;;11.60;;
38859;SDS011;24609;48.316;16.174;2022-12-31T01:08:32;24.55;;;11.82;;
38859;SDS011;24609;48.316;16.174;2022-12-31T01:10:59;27.17;;;12.05;;
38859;SDS011;24609;48.316;16.174;2022-12-31T01:13:47;25.27;;;13.05;;
38859;SDS011;24609;48.316;16.174;2022-12-31T01:16:15;30.17;;;14.23;;
38859;SDS011;24609;48.316;16.174;2022-12-31T01:18:43;23.88;;;12.48;;
38859;SDS011;24609;48.316;16.174;2022-12-31T01:21:10;23.80;;;13.43;;
38859;SDS011;24609;48.316;16.174;2022-12-31T01:23:37;26.98;;;11.77;;
38859;SDS011;24609;48.316;16.174;2022-12-31T01:26:04;25.13;;;12.13;;
38859;SDS011;24609;48.316;16.174;2022-12-31T01:28:30;31.42;;;12.85;;
38859;SDS011;24609;48.316;16.174;2022-12-31T01:30:57;23.52;;;12.45;;
38859;SDS011;24609;48.316;16.174;2022-12-31T01:33:22;25.27;;;10.80;;
38859;SDS011;24609;48.316;16.174;2022-12-31T01:35:48;24.58;;;12.35;;
38859;SDS011;24609;48.316;16.174;2022-12-31T01:38:14;26.10;;;10.35;;
38859;SDS011;24609;48.316;16.174;2022-12-31T01:40:40;25.63;;;10.93;;
38859;SDS011;24609;48.316;16.174;2022-12-31T01:43:14;22.17;;;12.82;;
38859;SDS011;24609;48.316;16.174;2022-12-31T01:45:46;24.10;;;11.90;;
38859;SDS011;24609;48.316;16.174;2022-12-31T01:48:16;28.00;;;13.07;;
38859;SDS011;24609;48.316;16.174;2022-12-31T01:50:45;24.17;;;12.73;;
38859;SDS011;24609;48.316;16.174;2022-12-31T01:53:12;18.92;;;12.23;;
38859;SDS011;24609;48.316;16.174;2022-12-31T01:55:46;25.35;;;12.20;;
38859;SDS011;24609;48.316;16.174;2022-12-31T01:58:56;28.95;;;12.38;;
38859;SDS011;24609;48.316;16.174;2022-12-31T02:01:20;26.85;;;12.18;;
38859;SDS011;24609;48.316;16.174;2022-12-31T02:03:51;21.67;;;11.52;;
38859;SDS011;24609;48.316;16.174;2022-12-31T02:06:19;22.35;;;12.80;;
38859;SDS011;24609;48.316;16.174;2022-12-31T02:08:48;24.35;;;13.00;;
38859;SDS011;24609;48.316;16.174;2022-12-31T02:11:21;28.30;;;13.40;;
38859;SDS011;24609;48.316;16.174;2022-12-31T02:13:50;19.98;;;9.50;;
38859;SDS011;24609;48.316;16.174;2022-12-31T02:16:24;28.52;;;13.10;;
38859;SDS011;24609;48.316;16.174;2022-12-31T02:18:55;25.52;;;11.35;;
38859;SDS011;24609;48.316;16.174;2022-12-31T02:21:46;21.40;;;11.02;;
38859;SDS011;24609;48.316;16.174;2022-12-31T02:24:36;30.65;;;14.63;;
38859;SDS011;24609;48.316;16.174;2022-12-31T02:30:20;28.15;;;12.13;;
38859;SDS011;24609;48.316;16.174;2022-12-31T02:35:46;27.38;;;11.20;;
38859;SDS011;24609;48.316;16.174;2022-12-31T02:38:17;22.33;;;10.75;;
38859;SDS011;24609;48.316;16.174;2022-12-31T02:41:12;23.85;;;11.85;;
38859;SDS011;24609;48.316;16.174;2022-12-31T02:44:23;22.55;;;11.27;;
38859;SDS011;24609;48.316;16.174;2022-12-31T02:55:01;31.55;;;16.58;;
38859;SDS011;24609;48.316;16.174;2022-12-31T02:57:38;25.50;;;13.73;;
38859;SDS011;24609;48.316;16.174;2022-12-31T03:00:05;34.35;;;12.68;;
38859;SDS011;24609;48.316;16.174;2022-12-31T03:02:56;24.23;;;12.00;;
38859;SDS011;24609;48.316;16.174;2022-12-31T03:05:26;19.05;;;9.90;;
38859;SDS011;24609;48.316;16.174;2022-12-31T03:07:57;22.52;;;11.55;;
38859;SDS011;24609;48.316;16.174;2022-12-31T03:10:23;28.00;;;14.07;;
38859;SDS011;24609;48.316;16.174;2022-12-31T03:12:49;36.28;;;14.70;;
38859;SDS011;24609;48.316;16.174;2022-12-31T03:15:17;25.75;;;12.88;;
38859;SDS011;24609;48.316;16.174;2022-12-31T03:17:49;25.80;;;11.73;;
38859;SDS011;24609;48.316;16.174;2022-12-31T03:20:26;23.75;;;12.70;;
38859;SDS011;24609;48.316;16.174;2022-12-31T03:23:11;20.50;;;11.55;;
38859;SDS011;24609;48.316;16.174;2022-12-31T03:25:38;20.15;;;12.20;;
38859;SDS011;24609;48.316;16.174;2022-12-31T03:28:08;24.95;;;11.45;;
38859;SDS011;24609;48.316;16.174;2022-12-31T03:30:36;26.10;;;11.48;;
38859;SDS011;24609;48.316;16.174;2022-12-31T03:33:04;24.92;;;13.88;;
38859;SDS011;24609;48.316;16.174;2022-12-31T03:35:31;33.17;;;14.07;;
38859;SDS011;24609;48.316;16.174;2022-12-31T03:37:58;34.60;;;14.05;;
38859;SDS011;24609;48.316;16.174;2022-12-31T03:40:25;28.88;;;11.25;;
38859;SDS011;24609;48.316;16.174;2022-12-31T03:42:52;22.77;;;10.85;;
38859;SDS011;24609;48.316;16.174;2022-12-31T03:45:18;31.42;;;12.60;;
38859;SDS011;24609;48.316;16.174;2022-12-31T03:47:43;21.45;;;11.63;;
38859;SDS011;24609;48.316;16.174;2022-12-31T03:50:10;30.23;;;12.23;;
38859;SDS011;24609;48.316;16.174;2022-12-31T03:52:37;24.83;;;11.07;;
38859;SDS011;24609;48.316;16.174;2022-12-31T03:55:03;29.35;;;13.23;;
38859;SDS011;24609;48.316;16.174;2022-12-31T03:57:30;23.95;;;13.32;;
38859;SDS011;24609;48.316;16.174;2022-12-31T03:59:55;25.63;;;12.65;;
38859;SDS011;24609;48.316;16.174;2022-12-31T04:02:21;35.42;;;14.32;;
38859;SDS011;24609;48.316;16.174;2022-12-31T04:04:47;26.13;;;12.20;;
38859;SDS011;24609;48.316;16.174;2022-12-31T04:07:13;22.48;;;12.57;;
38859;SDS011;24609;48.316;16.174;2022-12-31T04:09:38;21.45;;;9.93;;
38859;SDS011;24609;48.316;16.174;2022-12-31T04:12:04;20.63;;;10.77;;
38859;SDS011;24609;48.316;16.174;2022-12-31T04:14:30;30.70;;;13.18;;
38859;SDS011;24609;48.316;16.174;2022-12-31T04:16:55;22.00;;;11.35;;
38859;SDS011;24609;48.316;16.174;2022-12-31T04:19:21;29.20;;;10.43;;
38859;SDS011;24609;48.316;16.174;2022-12-31T04:21:47;25.88;;;11.32;;
38859;SDS011;24609;48.316;16.174;2022-12-31T04:24:12;22.23;;;11.40;;
38859;SDS011;24609;48.316;16.174;2022-12-31T04:26:38;21.00;;;9.25;;
38859;SDS011;24609;48.316;16.174;2022-12-31T04:29:04;23.17;;;10.50;;
38859;SDS011;24609;48.316;16.174;2022-12-31T04:31:30;23.50;;;11.13;;
38859;SDS011;24609;48.316;16.174;2022-12-31T04:33:55;21.88;;;11.02;;
38859;SDS011;24609;48.316;16.174;2022-12-31T04:36:21;22.38;;;10.95;;
38859;SDS011;24609;48.316;16.174;2022-12-31T04:38:47;25.75;;;13.13;;
38859;SDS011;24609;48.316;16.174;2022-12-31T04:41:12;27.88;;;11.40;;
38859;SDS011;24609;48.316;16.174;2022-12-31T04:43:41;22.53;;;11.23;;
38859;SDS011;24609;48.316;16.174;2022-12-31T04:46:11;30.38;;;12.25;;
38859;SDS011;24609;48.316;16.174;2022-12-31T04:48:38;21.42;;;11.35;;
38859;SDS011;24609;48.316;16.174;2022-12-31T04:51:03;25.08;;;12.13;;
38859;SDS011;24609;48.316;16.174;2022-12-31T04:53:29;23.73;;;11.63;;
38859;SDS011;24609;48.316;16.174;2022-12-31T04:55:55;22.98;;;12.02;;
38859;SDS011;24609;48.316;16.174;2022-12-31T04:58:21;26.80;;;12.20;;
38859;SDS011;24609;48.316;16.174;2022-12-31T05:00:47;20.02;;;10.95;;
38859;SDS011;24609;48.316;16.174;2022-12-31T05:03:15;23.50;;;11.02;;
38859;SDS011;24609;48.316;16.174;2022-12-31T05:05:41;19.35;;;9.95;;
38859;SDS011;24609;48.316;16.174;2022-12-31T05:08:10;22.70;;;10.93;;
38859;SDS011;24609;48.316;16.174;2022-12-31T05:10:39;23.15;;;10.10;;
38859;SDS011;24609;48.316;16.174;2022-12-31T05:13:06;26.10;;;10.13;;
38859;SDS011;24609;48.316;16.174;2022-12-31T05:15:32;22.92;;;11.15;;
38859;SDS011;24609;48.316;16.174;2022-12-31T05:17:57;27.40;;;11.18;;
38859;SDS011;24609;48.316;16.174;2022-12-31T05:20:23;24.00;;;10.77;;
38859;SDS011;24609;48.316;16.174;2022-12-31T05:22:49;24.23;;;11.15;;
38859;SDS011;24609;48.316;16.174;2022-12-31T05:25:14;26.38;;;10.70;;
38859;SDS011;24609;48.316;16.174;2022-12-31T05:27:40;25.05;;;11.10;;
38859;SDS011;24609;48.316;16.174;2022-12-31T05:30:06;21.40;;;11.35;;
38859;SDS011;24609;48.316;16.174;2022-12-31T05:32:32;22.20;;;11.05;;
38859;SDS011;24609;48.316;16.174;2022-12-31T05:34:58;23.80;;;11.40;;
38859;SDS011;24609;48.316;16.174;2022-12-31T05:37:24;18.73;;;9.95;;
38859;SDS011;24609;48.316;16.174;2022-12-31T05:39:51;25.20;;;11.18;;
38859;SDS011;24609;48.316;16.174;2022-12-31T05:42:17;21.90;;;11.43;;
38859;SDS011;24609;48.316;16.174;2022-12-31T05:44:42;25.98;;;12.57;;
38859;SDS011;24609;48.316;16.174;2022-12-31T05:47:08;25.80;;;12.90;;
38859;SDS011;24609;48.316;16.174;2022-12-31T05:49:34;24.40;;;11.48;;
38859;SDS011;24609;48.316;16.174;2022-12-31T05:51:59;26.90;;;12.93;;
38859;SDS011;24609;48.316;16.174;2022-12-31T05:54:25;28.83;;;13.07;;
38859;SDS011;24609;48.316;16.174;2022-12-31T05:56:51;26.08;;;12.40;;
38859;SDS011;24609;48.316;16.174;2022-12-31T05:59:16;27.38;;;11.52;;
38859;SDS011;24609;48.316;16.174;2022-12-31T06:01:42;25.77;;;11.52;;
38859;SDS011;24609;48.316;16.174;2022-12-31T06:04:08;25.55;;;11.52;;
38859;SDS011;24609;48.316;16.174;2022-12-31T06:06:33;26.73;;;11.90;;
38859;SDS011;24609;48.316;16.174;2022-12-31T06:08:59;28.48;;;14.13;;
38859;SDS011;24609;48.316;16.174;2022-12-31T06:11:25;18.35;;;10.82;;
38859;SDS011;24609;48.316;16.174;2022-12-31T06:13:50;26.30;;;12.52;;
38859;SDS011;24609;48.316;16.174;2022-12-31T06:16:16;22.02;;;10.02;;
38859;SDS011;24609;48.316;16.174;2022-12-31T06:18:41;28.95;;;13.85;;
38859;SDS011;24609;48.316;16.174;2022-12-31T06:21:07;24.67;;;11.52;;
38859;SDS011;24609;48.316;16.174;2022-12-31T06:23:33;28.17;;;13.25;;
38859;SDS011;24609;48.316;16.174;2022-12-31T06:26:02;22.83;;;12.70;;
38859;SDS011;24609;48.316;16.174;2022-12-31T06:28:28;19.98;;;9.98;;
38859;SDS011;24609;48.316;16.174;2022-12-31T06:31:00;19.65;;;10.57;;
38859;SDS011;24609;48.316;16.174;2022-12-31T06:33:28;20.05;;;10.73;;
38859;SDS011;24609;48.316;16.174;2022-12-31T06:35:54;25.20;;;10.88;;
38859;SDS011;24609;48.316;16.174;2022-12-31T06:38:25;23.35;;;11.75;;
38859;SDS011;24609;48.316;16.174;2022-12-31T06:40:51;26.85;;;12.30;;
38859;SDS011;24609;48.316;16.174;2022-12-31T06:43:17;22.58;;;12.18;;
38859;SDS011;24609;48.316;16.174;2022-12-31T06:45:43;28.15;;;12.32;;
38859;SDS011;24609;48.316;16.174;2022-12-31T06:48:09;19.33;;;11.88;;
38859;SDS011;24609;48.316;16.174;2022-12-31T06:50:35;23.17;;;11.90;;
38859;SDS011;24609;48.316;16.174;2022-12-31T06:53:00;21.58;;;10.50;;
38859;SDS011;24609;48.316;16.174;2022-12-31T06:55:26;28.65;;;12.73;;
38859;SDS011;24609;48.316;16.174;2022-12-31T06:57:52;25.45;;;12.35;;
38859;SDS011;24609;48.316;16.174;2022-12-31T07:00:18;25.08;;;12.25;;
38859;SDS011;24609;48.316;16.174;2022-12-31T07:08:05;21.23;;;11.93;;
38859;SDS011;24609;48.316;16.174;2022-12-31T07:20:49;27.92;;;12.48;;
38859;SDS011;24609;48.316;16.174;2022-12-31T07:23:15;26.13;;;12.45;;
38859;SDS011;24609;48.316;16.174;2022-12-31T07:25:43;34.33;;;12.23;;
38859;SDS011;24609;48.316;16.174;2022-12-31T07:31:03;22.90;;;11.45;;
38859;SDS011;24609;48.316;16.174;2022-12-31T07:48:26;26.75;;;12.57;;
38859;SDS011;24609;48.316;16.174;2022-12-31T07:50:53;26.25;;;11.00;;
38859;SDS011;24609;48.316;16.174;2022-12-31T07:53:21;29.13;;;12.73;;
38859;SDS011;24609;48.316;16.174;2022-12-31T07:55:48;25.48;;;12.85;;
38859;SDS011;24609;48.316;16.174;2022-12-31T08:04:27;23.10;;;12.05;;
38859;SDS011;24609;48.316;16.174;2022-12-31T08:12:44;24.13;;;12.70;;
38859;SDS011;24609;48.316;16.174;2022-12-31T08:15:13;34.78;;;16.67;;
38859;SDS011;24609;48.316;16.174;2022-12-31T08:17:40;30.58;;;13.60;;
38859;SDS011;24609;48.316;16.174;2022-12-31T08:20:06;34.00;;;14.82;;
38859;SDS011;24609;48.316;16.174;2022-12-31T08:38:06;26.92;;;14.15;;
38859;SDS011;24609;48.316;16.174;2022-12-31T08:40:50;30.92;;;15.32;;
38859;SDS011;24609;48.316;16.174;2022-12-31T08:46:31;22.80;;;11.55;;
38859;SDS011;24609;48.316;16.174;2022-12-31T08:49:03;22.90;;;11.95;;
38859;SDS011;24609;48.316;16.174;2022-12-31T08:51:28;22.02;;;11.23;;
38859;SDS011;24609;48.316;16.174;2022-12-31T08:53:54;25.15;;;13.48;;
38859;SDS011;24609;48.316;16.174;2022-12-31T09:07:28;19.30;;;10.20;;
38859;SDS011;24609;48.316;16.174;2022-12-31T09:10:14;15.13;;;9.23;;
38859;SDS011;24609;48.316;16.174;2022-12-31T09:12:43;18.67;;;9.73;;
38859;SDS011;24609;48.316;16.174;2022-12-31T09:17:55;17.45;;;8.65;;
38859;SDS011;24609;48.316;16.174;2022-12-31T09:20:29;15.60;;;9.00;;
38859;SDS011;24609;48.316;16.174;2022-12-31T09:22:57;17.08;;;9.55;;
38859;SDS011;24609;48.316;16.174;2022-12-31T09:25:24;15.23;;;8.00;;
38859;SDS011;24609;48.316;16.174;2022-12-31T09:30:29;14.95;;;8.25;;
38859;SDS011;24609;48.316;16.174;2022-12-31T09:35:57;17.50;;;10.13;;
38859;SDS011;24609;48.316;16.174;2022-12-31T09:52:45;19.40;;;10.93;;
38859;SDS011;24609;48.316;16.174;2022-12-31T09:55:39;19.48;;;12.00;;
38859;SDS011;24609;48.316;16.174;2022-12-31T09:58:21;16.90;;;10.15;;
38859;SDS011;24609;48.316;16.174;2022-12-31T10:04:11;21.42;;;11.57;;
38859;SDS011;24609;48.316;16.174;2022-12-31T10:25:53;18.83;;;10.38;;
38859;SDS011;24609;48.316;16.174;2022-12-31T10:28:43;18.98;;;8.63;;
38859;SDS011;24609;48.316;16.174;2022-12-31T10:34:15;17.63;;;9.20;;
38859;SDS011;24609;48.316;16.174;2022-12-31T10:40:03;17.30;;;10.50;;
38859;SDS011;24609;48.316;16.174;2022-12-31T11:24:23;20.10;;;12.30;;
38859;SDS011;24609;48.316;16.174;2022-12-31T11:38:59;18.27;;;11.57;;
38859;SDS011;24609;48.316;16.174;2022-12-31T11:41:45;23.75;;;13.30;;
38859;SDS011;24609;48.316;16.174;2022-12-31T11:55:40;19.45;;;11.13;;
38859;SDS011;24609;48.316;16.174;2022-12-31T11:58:25;20.38;;;11.35;;
38859;SDS011;24609;48.316;16.174;2022-12-31T12:00:58;21.73;;;11.93;;
38859;SDS011;24609;48.316;16.174;2022-12-31T12:03:28;21.48;;;11.15;;
38859;SDS011;24609;48.316;16.174;2022-12-31T12:05:56;22.00;;;12.45;;
38859;SDS011;24609;48.316;16.174;2022-12-31T12:08:23;21.58;;;11.93;;
38859;SDS011;24609;48.316;16.174;2022-12-31T12:10:57;23.83;;;13.38;;
38859;SDS011;24609;48.316;16.174;2022-12-31T12:13:29;23.07;;;12.37;;
38859;SDS011;24609;48.316;16.174;2022-12-31T12:15:59;21.38;;;12.82;;
38859;SDS011;24609;48.316;16.174;2022-12-31T12:18:46;22.15;;;12.73;;
38859;SDS011;24609;48.316;16.174;2022-12-31T12:23:56;25.73;;;13.60;;
38859;SDS011;24609;48.316;16.174;2022-12-31T12:26:32;19.45;;;11.23;;
38859;SDS011;24609;48.316;16.174;2022-12-31T12:29:35;26.55;;;14.02;;
38859;SDS011;24609;48.316;16.174;2022-12-31T12:34:33;18.10;;;10.48;;
38859;SDS011;24609;48.316;16.174;2022-12-31T12:39:26;24.58;;;13.32;;
38859;SDS011;24609;48.316;16.174;2022-12-31T12:42:08;19.52;;;11.30;;
38859;SDS011;24609;48.316;16.174;2022-12-31T12:44:36;22.92;;;11.20;;
38859;SDS011;24609;48.316;16.174;2022-12-31T12:47:04;20.92;;;11.05;;
38859;SDS011;24609;48.316;16.174;2022-12-31T12:49:38;17.98;;;11.25;;
38859;SDS011;24609;48.316;16.174;2022-12-31T12:57:47;21.23;;;11.63;;
38859;SDS011;24609;48.316;16.174;2022-12-31T13:00:49;23.73;;;12.70;;
38859;SDS011;24609;48.316;16.174;2022-12-31T13:12:03;21.42;;;13.45;;
38859;SDS011;24609;48.316;16.174;2022-12-31T13:25:35;25.07;;;12.20;;
38859;SDS011;24609;48.316;16.174;2022-12-31T13:28:25;19.75;;;11.48;;
38859;SDS011;24609;48.316;16.174;2022-12-31T13:30:57;23.25;;;11.98;;
38859;SDS011;24609;48.316;16.174;2022-12-31T13:33:27;22.20;;;11.82;;
38859;SDS011;24609;48.316;16.174;2022-12-31T13:35:57;16.35;;;9.00;;
38859;SDS011;24609;48.316;16.174;2022-12-31T13:38:42;21.50;;;13.07;;
38859;SDS011;24609;48.316;16.174;2022-12-31T13:49:04;23.20;;;13.18;;
38859;SDS011;24609;48.316;16.174;2022-12-31T13:51:42;20.83;;;13.02;;
38859;SDS011;24609;48.316;16.174;2022-12-31T13:56:50;20.23;;;12.02;;
38859;SDS011;24609;48.316;16.174;2022-12-31T13:59:21;25.77;;;15.07;;
38859;SDS011;24609;48.316;16.174;2022-12-31T14:01:54;19.45;;;12.35;;
38859;SDS011;24609;48.316;16.174;2022-12-31T14:07:40;23.77;;;12.90;;
38859;SDS011;24609;48.316;16.174;2022-12-31T14:10:14;21.33;;;11.18;;
38859;SDS011;24609;48.316;16.174;2022-12-31T14:20:48;26.83;;;14.82;;
38859;SDS011;24609;48.316;16.174;2022-12-31T14:26:00;23.50;;;11.73;;
38859;SDS011;24609;48.316;16.174;2022-12-31T14:28:32;23.25;;;14.02;;
38859;SDS011;24609;48.316;16.174;2022-12-31T14:45:27;34.20;;;12.10;;
38859;SDS011;24609;48.316;16.174;2022-12-31T14:48:12;27.77;;;13.95;;
38859;SDS011;24609;48.316;16.174;2022-12-31T14:50:43;28.27;;;13.98;;
38859;SDS011;24609;48.316;16.174;2022-12-31T14:53:17;26.15;;;14.18;;
38859;SDS011;24609;48.316;16.174;2022-12-31T14:58:28;31.52;;;15.93;;
38859;SDS011;24609;48.316;16.174;2022-12-31T15:00:57;29.35;;;15.57;;
38859;SDS011;24609;48.316;16.174;2022-12-31T15:16:42;21.52;;;12.85;;
38859;SDS011;24609;48.316;16.174;2022-12-31T15:27:59;38.07;;;18.87;;
38859;SDS011;24609;48.316;16.174;2022-12-31T15:30:30;27.67;;;14.77;;
38859;SDS011;24609;48.316;16.174;2022-12-31T15:33:03;26.63;;;14.75;;
38859;SDS011;24609;48.316;16.174;2022-12-31T15:35:50;23.27;;;13.50;;
38859;SDS011;24609;48.316;16.174;2022-12-31T15:38:34;25.95;;;14.63;;
38859;SDS011;24609;48.316;16.174;2022-12-31T15:43:57;22.35;;;14.32;;
38859;SDS011;24609;48.316;16.174;2022-12-31T15:46:30;29.98;;;14.38;;
38859;SDS011;24609;48.316;16.174;2022-12-31T15:52:00;18.48;;;10.48;;
38859;SDS011;24609;48.316;16.174;2022-12-31T15:54:41;27.38;;;14.07;;
38859;SDS011;24609;48.316;16.174;2022-12-31T15:57:32;24.10;;;12.07;;
38859;SDS011;24609;48.316;16.174;2022-12-31T15:59:59;23.15;;;11.98;;
38859;SDS011;24609;48.316;16.174;2022-12-31T16:02:28;28.05;;;14.70;;
38859;SDS011;24609;48.316;16.174;2022-12-31T16:04:54;20.83;;;11.75;;
38859;SDS011;24609;48.316;16.174;2022-12-31T16:07:20;21.50;;;10.82;;
38859;SDS011;24609;48.316;16.174;2022-12-31T16:09:54;24.77;;;12.93;;
38859;SDS011;24609;48.316;16.174;2022-12-31T16:12:23;19.88;;;11.07;;
38859;SDS011;24609;48.316;16.174;2022-12-31T16:14:55;24.23;;;14.15;;
38859;SDS011;24609;48.316;16.174;2022-12-31T16:17:28;25.85;;;13.75;;
38859;SDS011;24609;48.316;16.174;2022-12-31T16:19:54;33.63;;;17.48;;
38859;SDS011;24609;48.316;16.174;2022-12-31T16:22:35;28.38;;;14.88;;
38859;SDS011;24609;48.316;16.174;2022-12-31T16:25:02;24.40;;;14.60;;
38859;SDS011;24609;48.316;16.174;2022-12-31T16:27:30;25.58;;;15.32;;
38859;SDS011;24609;48.316;16.174;2022-12-31T16:35:02;28.92;;;13.95;;
38859;SDS011;24609;48.316;16.174;2022-12-31T16:37:43;32.75;;;15.82;;
38859;SDS011;24609;48.316;16.174;2022-12-31T16:40:17;22.83;;;12.43;;
38859;SDS011;24609;48.316;16.174;2022-12-31T16:42:46;20.00;;;11.45;;
38859;SDS011;24609;48.316;16.174;2022-12-31T16:45:45;17.65;;;10.82;;
38859;SDS011;24609;48.316;16.174;2022-12-31T16:48:10;25.05;;;13.32;;
38859;SDS011;24609;48.316;16.174;2022-12-31T16:50:48;31.30;;;15.35;;
38859;SDS011;24609;48.316;16.174;2022-12-31T16:53:17;36.33;;;19.00;;
38859;SDS011;24609;48.316;16.174;2022-12-31T16:58:39;29.77;;;15.63;;
38859;SDS011;24609;48.316;16.174;2022-12-31T17:01:16;34.15;;;19.17;;
38859;SDS011;24609;48.316;16.174;2022-12-31T17:03:46;29.02;;;16.58;;
38859;SDS011;24609;48.316;16.174;2022-12-31T17:06:16;34.58;;;18.90;;
38859;SDS011;24609;48.316;16.174;2022-12-31T17:11:27;32.13;;;18.27;;
38859;SDS011;24609;48.316;16.174;2022-12-31T17:16:29;29.83;;;16.88;;
38859;SDS011;24609;48.316;16.174;2022-12-31T17:18:56;37.65;;;20.30;;
38859;SDS011;24609;48.316;16.174;2022-12-31T17:21:23;37.88;;;19.58;;
38859;SDS011;24609;48.316;16.174;2022-12-31T17:26:25;29.38;;;16.92;;
38859;SDS011;24609;48.316;16.174;2022-12-31T17:28:54;38.78;;;18.67;;
38859;SDS011;24609;48.316;16.174;2022-12-31T17:33:53;40.67;;;21.20;;
38859;SDS011;24609;48.316;16.174;2022-12-31T17:36:29;41.00;;;19.77;;
38859;SDS011;24609;48.316;16.174;2022-12-31T17:38:54;37.83;;;23.17;;
38859;SDS011;24609;48.316;16.174;2022-12-31T17:41:21;43.22;;;23.30;;
38859;SDS011;24609;48.316;16.174;2022-12-31T17:43:50;38.47;;;22.45;;
38859;SDS011;24609;48.316;16.174;2022-12-31T17:46:19;39.85;;;22.15;;
38859;SDS011;24609;48.316;16.174;2022-12-31T17:48:48;43.65;;;22.15;;
38859;SDS011;24609;48.316;16.174;2022-12-31T17:51:17;48.38;;;24.35;;
38859;SDS011;24609;48.316;16.174;2022-12-31T17:53:43;35.08;;;19.02;;
38859;SDS011;24609;48.316;16.174;2022-12-31T17:56:09;32.13;;;15.20;;
38859;SDS011;24609;48.316;16.174;2022-12-31T17:58:44;29.52;;;16.25;;
38859;SDS011;24609;48.316;16.174;2022-12-31T18:01:16;39.75;;;16.92;;
38859;SDS011;24609;48.316;16.174;2022-12-31T18:03:43;48.97;;;24.70;;
38859;SDS011;24609;48.316;16.174;2022-12-31T18:06:10;40.63;;;20.90;;
38859;SDS011;24609;48.316;16.174;2022-12-31T18:08:36;40.72;;;20.65;;
38859;SDS011;24609;48.316;16.174;2022-12-31T18:11:02;32.42;;;17.55;;
38859;SDS011;24609;48.316;16.174;2022-12-31T18:13:28;37.28;;;21.65;;
38859;SDS011;24609;48.316;16.174;2022-12-31T18:15:54;39.35;;;20.23;;
38859;SDS011;24609;48.316;16.174;2022-12-31T18:18:24;35.17;;;16.83;;
38859;SDS011;24609;48.316;16.174;2022-12-31T18:20:52;37.90;;;18.73;;
38859;SDS011;24609;48.316;16.174;2022-12-31T18:23:23;32.22;;;18.23;;
38859;SDS011;24609;48.316;16.174;2022-12-31T18:25:51;31.42;;;16.17;;
38859;SDS011;24609;48.316;16.174;2022-12-31T18:28:17;38.53;;;20.63;;
38859;SDS011;24609;48.316;16.174;2022-12-31T18:30:44;39.53;;;20.50;;
38859;SDS011;24609;48.316;16.174;2022-12-31T18:33:11;34.33;;;19.35;;
38859;SDS011;24609;48.316;16.174;2022-12-31T18:35:38;41.28;;;20.80;;
38859;SDS011;24609;48.316;16.174;2022-12-31T18:38:05;46.25;;;21.30;;
38859;SDS011;24609;48.316;16.174;2022-12-31T18:40:39;39.25;;;21.73;;
38859;SDS011;24609;48.316;16.174;2022-12-31T18:45:41;32.33;;;19.60;;
38859;SDS011;24609;48.316;16.174;2022-12-31T18:48:08;35.40;;;19.15;;
38859;SDS011;24609;48.316;16.174;2022-12-31T18:50:34;34.97;;;19.25;;
38859;SDS011;24609;48.316;16.174;2022-12-31T18:52:59;34.60;;;16.88;;
38859;SDS011;24609;48.316;16.174;2022-12-31T18:55:47;30.35;;;18.95;;
38859;SDS011;24609;48.316;16.174;2022-12-31T18:58:15;40.22;;;22.48;;
38859;SDS011;24609;48.316;16.174;2022-12-31T19:00:42;37.03;;;20.75;;
38859;SDS011;24609;48.316;16.174;2022-12-31T19:03:12;29.48;;;18.55;;
38859;SDS011;24609;48.316;16.174;2022-12-31T19:05:42;33.42;;;15.75;;
38859;SDS011;24609;48.316;16.174;2022-12-31T19:08:09;27.20;;;14.85;;
38859;SDS011;24609;48.316;16.174;2022-12-31T19:10:35;24.88;;;14.45;;
38859;SDS011;24609;48.316;16.174;2022-12-31T19:13:01;30.17;;;14.35;;
38859;SDS011;24609;48.316;16.174;2022-12-31T19:15:34;30.25;;;14.63;;
38859;SDS011;24609;48.316;16.174;2022-12-31T19:18:06;29.58;;;13.95;;
38859;SDS011;24609;48.316;16.174;2022-12-31T19:20:34;33.95;;;19.27;;
38859;SDS011;24609;48.316;16.174;2022-12-31T19:22:59;33.13;;;16.88;;
38859;SDS011;24609;48.316;16.174;2022-12-31T19:25:34;33.22;;;17.80;;
38859;SDS011;24609;48.316;16.174;2022-12-31T19:28:00;45.45;;;23.20;;
38859;SDS011;24609;48.316;16.174;2022-12-31T19:30:31;40.95;;;21.83;;
38859;SDS011;24609;48.316;16.174;2022-12-31T19:32:58;48.05;;;25.25;;
38859;SDS011;24609;48.316;16.174;2022-12-31T19:35:25;50.63;;;24.50;;
38859;SDS011;24609;48.316;16.174;2022-12-31T19:37:52;42.95;;;21.55;;
38859;SDS011;24609;48.316;16.174;2022-12-31T19:40:28;58.58;;;28.42;;
38859;SDS011;24609;48.316;16.174;2022-12-31T19:42:55;61.63;;;30.13;;
38859;SDS011;24609;48.316;16.174;2022-12-31T19:45:21;54.78;;;28.50;;
38859;SDS011;24609;48.316;16.174;2022-12-31T19:47:49;66.75;;;31.88;;
38859;SDS011;24609;48.316;16.174;2022-12-31T19:50:16;62.40;;;29.27;;
38859;SDS011;24609;48.316;16.174;2022-12-31T19:52:53;45.33;;;24.58;;
38859;SDS011;24609;48.316;16.174;2022-12-31T19:55:21;40.38;;;22.00;;
38859;SDS011;24609;48.316;16.174;2022-12-31T19:57:49;41.75;;;23.10;;